Latest Weather Observations for Longerenong

IDV60801

Issued at 11:32 pm EST Monday 26 June 2017 (issued every 30 minutes, with the page automatically refreshed every 10 minutes)

About weather observations | Map of weather stations | Latest weather observations for VIC | Other Formats
Station Details ID: 079028 Name: LONGERENONG Lat: -36.67 Lon: 142.30 Height: 133.0 m
Data from the previous 72 hours. | See also: Recent months at Longerenong
Date/Time
EST
Temp
°C
App
Temp
°C
Dew
Point
°C
Rel
Hum
%
Delta-T
°C
Wind Press
QNH
hPa
Press
MSL
hPa
Rain since
9am
mm
Dir  Spd
km/h
Gust
km/h
Spd
kts
Gust
kts
26/11:30pm 8.9 8.1 6.3 84 1.2 CALM 0 0 0 0 - - 0.0
26/11:00pm 9.0 7.5 6.6 85 1.1 ESE 4 4 2 2 - - 0.0
26/10:30pm 9.1 8.3 6.5 84 1.2 CALM 0 0 0 0 - - 0.0
26/10:00pm 9.1 8.3 6.4 83 1.3 CALM 0 0 0 0 - - 0.0
26/09:30pm 9.3 8.5 6.4 82 1.4 CALM 0 0 0 0 - - 0.0
26/09:00pm 9.3 8.5 6.4 82 1.4 CALM 0 0 0 0 - - 0.0
26/08:30pm 9.4 8.6 6.5 82 1.4 CALM 0 0 0 0 - - 0.0
26/08:00pm 9.7 8.9 6.4 80 1.5 CALM 0 0 0 0 - - 0.0
26/07:30pm 9.9 9.1 6.3 78 1.7 CALM 0 0 0 0 - - 0.0
26/07:00pm 10.0 9.2 6.3 78 1.7 CALM 0 0 0 0 - - 0.0
26/06:30pm 10.1 9.3 6.4 78 1.7 CALM 0 0 0 0 - - 0.0
26/06:00pm 10.6 9.4 6.4 75 2.0 SSW 2 4 1 2 - - 0.0
26/05:30pm 11.0 9.3 6.0 71 2.3 SSW 4 4 2 2 - - 0.0
26/05:00pm 11.3 9.5 5.6 68 2.7 SW 4 4 2 2 - - 0.0
26/04:30pm 11.6 9.5 5.9 68 2.7 SW 6 9 3 5 - - 0.0
26/04:00pm 11.9 9.4 6.4 69 2.6 SW 9 11 5 6 - - 0.0
26/03:30pm 11.6 9.3 5.5 66 2.8 SSW 7 9 4 5 - - 0.0
26/03:00pm 11.9 9.6 5.5 65 3.0 SW 7 13 4 7 - - 0.0
26/02:30pm 12.5 10.3 5.2 61 3.4 SSW 6 9 3 5 - - 0.0
26/02:00pm 12.9 10.7 6.3 64 3.2 W 7 11 4 6 - - 0.0
26/01:30pm 12.1 10.2 6.8 70 2.5 SW 6 9 3 5 - - 0.0
26/01:00pm 11.3 9.3 6.2 71 2.4 SW 6 11 3 6 - - 0.0
26/12:30pm 11.2 9.2 7.1 76 2.0 SSW 7 13 4 7 - - 0.0
26/12:00pm 10.9 9.6 9.3 90 0.8 WSW 6 13 3 7 - - 0.0
26/11:30am 9.7 8.3 9.4 98 0.2 SW 7 11 4 6 - - 0.0
26/11:00am 9.1 7.6 9.1 100 0.0 WSW 7 11 4 6 - - 0.0
26/10:30am 8.1 6.5 8.1 100 0.0 WSW 6 9 3 5 - - 0.0
26/10:00am 8.2 6.5 8.2 100 0.0 WSW 7 11 4 6 - - 0.0
26/09:30am 8.0 6.2 8.0 100 0.0 SSW 7 11 4 6 - - 0.0
26/09:00am 8.0 6.4 8.0 100 0.0 SW 6 11 3 6 - - 1.0
26/08:30am 7.7 7.2 7.7 100 0.0 CALM 0 0 0 0 - - 1.0
26/08:00am 7.5 6.5 7.5 100 0.0 S 2 6 1 3 - - 1.0
26/07:30am 7.5 5.6 7.5 100 0.0 S 7 11 4 6 - - 0.8
26/07:00am 7.5 6.2 7.5 100 0.0 SW 4 6 2 3 - - 0.8
26/06:30am 7.4 5.5 7.4 100 0.0 WSW 7 9 4 5 - - 0.8
26/06:00am 7.5 5.8 7.5 100 0.0 W 6 6 3 3 - - 0.8
26/05:30am 7.5 6.5 7.5 100 0.0 SW 2 6 1 3 - - 0.8
26/05:00am 7.5 6.9 7.5 100 0.0 CALM 0 6 0 3 - - 0.8
26/04:30am 7.4 5.7 7.4 100 0.0 WSW 6 7 3 4 - - 0.8
26/04:00am 7.3 5.5 7.3 100 0.0 WSW 6 9 3 5 - - 0.8
26/03:30am 7.0 5.2 7.0 100 0.0 SW 6 7 3 4 - - 0.8
26/03:00am 6.8 4.7 6.8 100 0.0 W 7 9 4 5 - - 0.8
26/02:30am 7.0 4.6 6.9 99 0.0 W 9 11 5 6 - - 0.6
26/02:00am 7.0 5.1 6.9 99 0.0 W 6 9 3 5 - - 0.6
26/01:30am 7.5 5.6 7.4 99 0.0 WSW 7 9 4 5 - - 0.6
26/01:00am 7.1 5.3 7.0 99 0.0 WNW 6 9 3 5 - - 0.6
26/12:30am 6.0 3.3 5.7 98 0.1 NW 9 9 5 5 - - 0.6
26/12:00am 6.6 4.0 6.2 97 0.2 NW 9 11 5 6 - - 0.6
 
Date/Time
EST
Temp
°C
App
Temp
°C
Dew
Point
°C
Rel
Hum
%
Delta-T
°C
Wind Press
QNH
hPa
Press
MSL
hPa
Rain since
9am
mm
Dir  Spd
km/h
Gust
km/h
Spd
kts
Gust
kts
25/11:30pm 7.6 5.2 7.2 97 0.2 NW 9 11 5 6 - - 0.6
25/11:00pm 7.8 5.9 7.4 97 0.2 WNW 7 9 4 5 - - 0.6
25/10:30pm 7.9 5.6 7.5 97 0.2 WNW 9 11 5 6 - - 0.6
25/10:00pm 8.0 5.3 7.4 96 0.3 WNW 11 13 6 7 - - 0.6
25/09:30pm 8.3 6.4 7.5 95 0.4 NW 7 11 4 6 - - 0.6
25/09:00pm 9.2 6.7 8.1 93 0.5 W 11 13 6 7 - - 0.6
25/08:30pm 9.4 7.0 7.0 85 1.1 W 9 13 5 7 - - 0.4
25/08:00pm 9.1 6.4 5.8 80 1.5 W 9 11 5 6 - - 0.4
25/07:30pm 10.2 6.5 6.2 76 1.9 W 15 22 8 12 - - 0.4
25/07:00pm 10.6 7.3 6.4 75 2.0 W 13 17 7 9 - - 0.4
25/06:30pm 10.0 6.7 6.2 77 1.8 W 13 19 7 10 - - 0.4
25/06:00pm 11.2 7.1 6.1 71 2.4 WNW 17 22 9 12 - - 0.4
25/05:30pm 11.1 7.3 6.0 71 2.4 WNW 15 19 8 10 - - 0.4
25/05:00pm 12.1 8.0 6.4 68 2.7 W 17 20 9 11 - - 0.4
25/04:30pm 12.8 8.7 6.2 64 3.1 W 17 26 9 14 - - 0.4
25/04:00pm 12.9 8.9 6.7 66 3.0 W 17 24 9 13 - - 0.4
25/03:30pm 13.9 9.6 7.2 64 3.3 W 19 24 10 13 - - 0.4
25/03:00pm 12.8 7.5 6.8 67 2.9 W 24 32 13 17 - - 0.4
25/02:30pm 12.7 7.2 7.4 70 2.6 W 26 32 14 17 - - 0.4
25/02:00pm 12.7 8.3 7.2 69 2.7 WSW 20 32 11 17 - - 0.4
25/01:30pm 13.5 8.0 7.5 67 3.0 W 26 33 14 18 - - 0.4
25/01:00pm 12.9 8.9 9.0 77 2.0 WNW 20 28 11 15 - - 0.4
25/12:30pm 11.4 6.5 8.3 81 1.5 W 24 32 13 17 - - 0.4
25/12:00pm 10.9 7.6 9.7 92 0.6 W 17 20 9 11 - - 0.4
25/11:30am 11.6 7.6 8.3 80 1.6 NW 19 28 10 15 - - 0.0
25/11:00am 11.1 7.6 8.8 86 1.1 NW 17 24 9 13 - - 0.0
25/10:30am 10.3 6.5 8.9 91 0.7 NW 19 24 10 13 - - 0.0
25/10:00am 9.3 5.7 8.4 94 0.4 W 17 20 9 11 - - 0.0
25/09:30am 9.1 6.5 7.7 91 0.7 WNW 11 17 6 9 - - 0.0
25/09:00am 8.2 5.8 6.8 91 0.7 NW 9 15 5 8 - - 0.0
25/08:30am 7.0 4.8 6.3 95 0.3 NNW 7 11 4 6 - - 0.0
25/08:00am 5.1 2.5 4.1 93 0.4 N 7 9 4 5 - - 0.0
25/07:30am 6.1 3.6 4.7 91 0.6 N 7 9 4 5 - - 0.0
25/07:00am 6.4 3.9 5.0 91 0.6 N 7 9 4 5 - - 0.0
25/06:30am 6.2 4.3 4.7 90 0.7 N 4 7 2 4 - - 0.0
25/06:00am 6.8 5.3 5.1 89 0.8 WSW 2 4 1 2 - - 0.0
25/05:30am 6.9 4.2 5.4 90 0.7 W 9 9 5 5 - - 0.0
25/05:00am 6.5 4.6 4.8 89 0.7 NNW 4 7 2 4 - - 0.0
25/04:30am 6.7 4.4 4.9 88 0.8 NNW 6 7 3 4 - - 0.0
25/04:00am 7.0 4.7 5.0 87 0.9 N 6 7 3 4 - - 0.0
25/03:30am 7.0 4.7 4.8 86 1.0 N 6 9 3 5 - - 0.0
25/03:00am 7.2 4.9 5.0 86 1.0 NW 6 9 3 5 - - 0.0
25/02:30am 7.2 4.7 5.0 86 1.0 NW 7 9 4 5 - - 0.0
25/02:00am 7.0 4.7 5.0 87 0.9 NNW 6 7 3 4 - - 0.0
25/01:30am 7.2 4.9 5.0 86 1.0 NW 6 6 3 3 - - 0.0
25/01:00am 7.5 5.6 5.1 85 1.1 NNW 4 7 2 4 - - 0.0
25/12:30am 7.6 5.4 5.2 85 1.1 NNW 6 7 3 4 - - 0.0
25/12:00am 7.3 5.1 5.1 86 1.0 NW 6 11 3 6 - - 0.0
 
Date/Time
EST
Temp
°C
App
Temp
°C
Dew
Point
°C
Rel
Hum
%
Delta-T
°C
Wind Press
QNH
hPa
Press
MSL
hPa
Rain since
9am
mm
Dir  Spd
km/h
Gust
km/h
Spd
kts
Gust
kts
24/11:30pm 7.3 5.4 5.0 85 1.0 N 4 6 2 3 - - 0.0
24/11:00pm 7.3 5.0 5.0 85 1.0 NNW 6 7 3 4 - - 0.0
24/10:30pm 6.7 4.7 4.4 85 1.0 NW 4 6 2 3 - - 0.0
24/10:00pm 7.2 4.8 4.5 83 1.2 NW 6 7 3 4 - - 0.0
24/09:30pm 7.4 4.9 4.7 83 1.2 NNW 7 11 4 6 - - 0.0
24/09:00pm 8.3 7.3 5.4 82 1.3 CALM 0 0 0 0 - - 0.0
24/08:30pm 8.4 6.6 5.3 81 1.4 NNW 4 6 2 3 - - 0.0
24/08:00pm 8.8 7.7 5.2 78 1.6 CALM 0 4 0 2 - - 0.0
24/07:30pm 9.1 8.0 5.3 77 1.7 CALM 0 0 0 0 - - 0.0
24/07:00pm 9.3 8.2 5.1 75 1.9 CALM 0 0 0 0 - - 0.0
24/06:30pm 9.4 8.2 4.8 73 2.1 CALM 0 0 0 0 - - 0.0
24/06:00pm 10.0 8.9 5.2 72 2.2 CALM 0 0 0 0 - - 0.0
24/05:30pm 10.4 8.9 5.2 70 2.4 SSW 2 4 1 2 - - 0.0
24/05:00pm 10.7 8.4 4.8 67 2.7 WSW 6 7 3 4 - - 0.0
24/04:30pm 10.9 7.6 4.4 64 2.9 WSW 11 17 6 9 - - 0.0
24/04:00pm 11.5 8.6 4.5 62 3.2 SW 9 17 5 9 - - 0.0
24/03:30pm 11.6 7.9 4.6 62 3.2 SW 13 19 7 10 - - 0.0
24/03:00pm 11.6 7.5 4.6 62 3.2 WSW 15 20 8 11 - - 0.0
24/02:30pm 12.4 8.3 4.6 59 3.6 SW 15 22 8 12 - - 0.0
24/02:00pm 11.8 9.3 5.0 63 3.1 SW 7 13 4 7 - - 0.0
24/01:30pm 11.3 8.6 5.4 67 2.7 SW 9 17 5 9 - - 0.0
24/01:00pm 11.4 9.3 5.9 69 2.6 SW 6 11 3 6 - - 0.0
24/12:30pm 10.9 9.5 5.4 69 2.5 W 2 6 1 3 - - 0.0
24/12:00pm 10.6 8.5 5.6 71 2.3 W 6 9 3 5 - - 0.0
24/11:30am 10.3 8.0 5.9 74 2.0 WNW 7 11 4 6 - - 0.0
24/11:00am 10.1 7.8 5.9 75 1.9 WNW 7 13 4 7 - - 0.0
24/10:30am 9.7 8.4 6.2 79 1.6 WNW 2 4 1 2 - - 0.0
24/10:00am 8.9 7.4 6.9 87 0.9 S 4 6 2 3 - - 0.0
24/09:30am 8.4 6.4 7.3 93 0.5 SSW 7 11 4 6 - - 0.0
24/09:00am 8.1 5.5 7.8 98 0.1 SSW 11 15 6 8 - - 0.0
24/08:30am 7.3 5.5 7.2 99 0.0 SSW 6 7 3 4 - - 0.0
24/08:00am 6.6 4.5 6.5 99 0.0 SW 7 9 4 5 - - 0.0
24/07:30am 5.9 3.8 5.8 99 0.0 W 6 6 3 3 - - 0.0
24/07:00am 6.2 4.5 6.1 99 0.0 WSW 4 6 2 3 - - 0.0
24/06:30am 6.4 4.4 6.3 99 0.0 SW 6 7 3 4 - - 0.0
24/06:00am 6.8 4.3 6.7 99 0.0 WSW 9 9 5 5 - - 0.0
24/05:30am 6.5 4.0 6.5 100 0.0 WSW 9 11 5 6 - - 0.0
24/05:00am 6.1 3.1 6.0 99 0.0 WSW 11 13 6 7 - - 0.0
24/04:30am 5.7 3.0 5.6 99 0.0 WSW 9 11 5 6 - - 0.0
24/04:00am 5.9 3.2 5.8 99 0.0 W 9 15 5 8 - - 0.0
24/03:30am 6.4 3.5 6.3 99 0.0 WSW 11 13 6 7 - - 0.0
24/03:00am 6.1 3.8 5.8 98 0.1 W 7 11 4 6 - - 0.0
24/02:30am 6.8 4.7 6.7 99 0.0 WNW 7 13 4 7 - - 0.0
24/02:00am 5.0 2.1 4.6 97 0.2 NW 9 11 5 6 - - 0.0
24/01:30am 6.2 3.2 5.8 97 0.2 NW 11 13 6 7 - - 0.0
24/01:00am 7.4 5.0 6.8 96 0.3 WNW 9 13 5 7 - - 0.0
24/12:30am 8.5 6.3 7.9 96 0.3 WNW 9 11 5 6 - - 0.0
24/12:00am 7.2 4.7 6.5 95 0.3 WNW 9 11 5 6 - - 0.0

Other Formats:

Comma delimited format used in spreadsheet applications
http://www.bom.gov.au/fwo/IDV60801/IDV60801.95835.axf

JavaScript Object Notation format (JSON) in row-major order
http://www.bom.gov.au/fwo/IDV60801/IDV60801.95835.json